Time;durP1;ratioP1;P1;durP2;ratioP2;P2;SDS_P1;SDS_P2;PMS_P1;PMS_P2;Temp;Humidity;BMP_temperature;BMP_pressure;BME280_temperature;BME280_humidity;BME280_pressure;Samples;Min_cycle;Max_cycle;Signal;HPM_P1;HPM_P2
2022/12/04 00:01:35;;;;;;;70.27;32.10;;;;;;;;;;5006471;28;20251;-66
2022/12/04 00:04:00;;;;;;;67.97;32.60;;;;;;;;;;4993414;28;20210;-63
2022/12/04 00:06:26;;;;;;;75.53;33.13;;;;;;;;;;4992593;28;20213;-65
2022/12/04 00:08:51;;;;;;;71.80;32.33;;;;;;;;;;4993831;28;20304;-66
2022/12/04 00:11:18;;;;;;;70.53;32.27;;;;;;;;;;4991657;28;20240;-65
2022/12/04 00:13:43;;;;;;;69.53;31.77;;;;;;;;;;4992877;28;20565;-67
2022/12/04 00:16:10;;;;;;;75.97;34.43;;;;;;;;;;4993076;28;20691;-65
2022/12/04 00:18:35;;;;;;;67.70;31.70;;;;;;;;;;4993611;28;20213;-65
2022/12/04 00:21:02;;;;;;;71.63;31.97;;;;;;;;;;4992139;28;20634;-64
2022/12/04 00:23:28;;;;;;;76.30;32.87;;;;;;;;;;4993521;28;20635;-65
2022/12/04 00:25:58;;;;;;;71.50;32.83;;;;;;;;;;4993324;28;20332;-66
2022/12/04 00:28:23;;;;;;;73.23;32.50;;;;;;;;;;4992237;28;20636;-65
2022/12/04 00:30:48;;;;;;;72.53;33.10;;;;;;;;;;4993529;28;20316;-65
2022/12/04 00:33:14;;;;;;;76.97;33.43;;;;;;;;;;4992803;28;20213;-65
2022/12/04 00:35:39;;;;;;;73.60;33.00;;;;;;;;;;4992341;28;20217;-66
2022/12/04 00:38:04;;;;;;;76.67;33.30;;;;;;;;;;4992735;28;20213;-65
2022/12/04 00:40:29;;;;;;;66.67;31.70;;;;;;;;;;4992659;28;20244;-65
2022/12/04 00:42:55;;;;;;;72.30;32.43;;;;;;;;;;4993207;28;20216;-66
2022/12/04 00:45:20;;;;;;;69.97;31.67;;;;;;;;;;4992705;28;20364;-65
2022/12/04 00:47:45;;;;;;;70.20;32.63;;;;;;;;;;4992327;28;20224;-65
2022/12/04 00:50:10;;;;;;;71.53;33.77;;;;;;;;;;4992619;28;20229;-66
2022/12/04 00:52:36;;;;;;;73.77;33.37;;;;;;;;;;4992808;28;20201;-65
2022/12/04 00:55:01;;;;;;;69.73;32.23;;;;;;;;;;4991867;28;20248;-64
2022/12/04 00:57:26;;;;;;;64.87;31.17;;;;;;;;;;5005636;28;20659;-65
2022/12/04 00:59:51;;;;;;;69.83;32.43;;;;;;;;;;5002039;28;20631;-65
2022/12/04 01:02:17;;;;;;;67.77;31.77;;;;;;;;;;4991410;28;20233;-65
2022/12/04 01:04:42;;;;;;;73.43;34.83;;;;;;;;;;4992876;28;20213;-65
2022/12/04 01:07:07;;;;;;;72.03;33.57;;;;;;;;;;4992223;28;20221;-65
2022/12/04 01:09:32;;;;;;;70.83;32.57;;;;;;;;;;4992206;28;20213;-66
2022/12/04 01:11:58;;;;;;;72.47;32.50;;;;;;;;;;4992826;28;20235;-66
2022/12/04 01:14:23;;;;;;;69.60;32.33;;;;;;;;;;4992539;28;20213;-66
2022/12/04 01:16:48;;;;;;;71.53;33.30;;;;;;;;;;5008762;28;20659;-66
2022/12/04 01:19:13;;;;;;;72.50;32.20;;;;;;;;;;5011992;28;20208;-68
2022/12/04 01:21:39;;;;;;;71.83;34.23;;;;;;;;;;4990445;28;20237;-68
2022/12/04 01:24:04;;;;;;;71.83;33.53;;;;;;;;;;4983381;28;20236;-68
2022/12/04 01:26:30;;;;;;;73.47;33.40;;;;;;;;;;4984496;28;20748;-68
2022/12/04 01:28:55;;;;;;;68.37;32.73;;;;;;;;;;4976316;28;20220;-68
2022/12/04 01:31:21;;;;;;;73.90;33.03;;;;;;;;;;4977665;28;20593;-68
2022/12/04 01:33:46;;;;;;;69.97;31.63;;;;;;;;;;4977990;28;20267;-68
2022/12/04 01:36:13;;;;;;;69.13;33.23;;;;;;;;;;5005113;28;20683;-68
2022/12/04 01:38:38;;;;;;;71.73;32.90;;;;;;;;;;4993096;28;20221;-68
2022/12/04 01:41:04;;;;;;;68.87;31.53;;;;;;;;;;4986576;28;20220;-68
2022/12/04 01:43:30;;;;;;;68.47;31.80;;;;;;;;;;4987077;28;20217;-69
2022/12/04 01:45:55;;;;;;;68.23;32.23;;;;;;;;;;4985129;28;20213;-68
2022/12/04 01:48:25;;;;;;;65.23;32.63;;;;;;;;;;4985883;28;20217;-68
2022/12/04 01:50:51;;;;;;;69.33;33.57;;;;;;;;;;4995867;28;20236;-68
2022/12/04 01:53:17;;;;;;;69.80;31.77;;;;;;;;;;4995939;28;20722;-68
2022/12/04 01:55:42;;;;;;;71.23;32.77;;;;;;;;;;4985866;28;20239;-68
2022/12/04 01:58:07;;;;;;;67.10;32.67;;;;;;;;;;4985326;28;20220;-68
2022/12/04 02:00:32;;;;;;;70.90;32.83;;;;;;;;;;4987023;28;20244;-68
2022/12/04 02:02:58;;;;;;;71.57;31.60;;;;;;;;;;4986822;28;20237;-68
2022/12/04 02:05:23;;;;;;;72.90;32.67;;;;;;;;;;4985375;28;20292;-68
2022/12/04 02:07:49;;;;;;;71.30;33.37;;;;;;;;;;5005243;28;20212;-68
2022/12/04 02:10:16;;;;;;;72.03;33.37;;;;;;;;;;5005305;28;20228;-68
2022/12/04 02:12:50;;;;;;;76.90;34.10;;;;;;;;;;5000030;28;20217;-68
2022/12/04 02:15:16;;;;;;;72.93;32.90;;;;;;;;;;4993390;28;20208;-68
2022/12/04 02:17:44;;;;;;;76.80;35.03;;;;;;;;;;4995883;28;20554;-68
2022/12/04 02:20:09;;;;;;;74.23;34.97;;;;;;;;;;5001815;28;21032;-69
2022/12/04 02:22:35;;;;;;;70.07;32.20;;;;;;;;;;5005598;28;20216;-69
2022/12/04 02:25:05;;;;;;;69.07;32.57;;;;;;;;;;5005206;28;20212;-65
2022/12/04 02:27:43;;;;;;;71.53;32.43;;;;;;;;;;5003267;28;20228;-68
2022/12/04 02:30:10;;;;;;;72.23;33.40;;;;;;;;;;5003713;28;20322;-68
2022/12/04 02:32:40;;;;;;;72.10;34.10;;;;;;;;;;5004286;28;20208;-68
2022/12/04 02:35:13;;;;;;;68.97;33.53;;;;;;;;;;4998148;28;20525;-68
2022/12/04 02:37:42;;;;;;;72.60;33.10;;;;;;;;;;4995752;28;20612;-68
2022/12/04 02:40:09;;;;;;;74.07;33.10;;;;;;;;;;4995976;28;20258;-68
2022/12/04 02:42:41;;;;;;;73.03;32.37;;;;;;;;;;5002654;28;20635;-68
2022/12/04 02:45:08;;;;;;;68.33;33.40;;;;;;;;;;5003448;28;20287;-68
2022/12/04 02:47:33;;;;;;;76.50;33.17;;;;;;;;;;5003232;28;20556;-68
2022/12/04 02:49:59;;;;;;;71.40;34.03;;;;;;;;;;5009356;28;20219;-68
2022/12/04 02:52:28;;;;;;;74.27;33.37;;;;;;;;;;4996779;28;20217;-68
2022/12/04 02:54:55;;;;;;;71.73;33.10;;;;;;;;;;4992913;28;20236;-68
2022/12/04 02:57:22;;;;;;;73.03;32.50;;;;;;;;;;4993380;28;20274;-68
2022/12/04 02:59:47;;;;;;;71.93;34.10;;;;;;;;;;4997457;28;20228;-68
2022/12/04 03:02:21;;;;;;;75.73;34.10;;;;;;;;;;4998398;28;20233;-68
2022/12/04 03:04:49;;;;;;;73.10;31.90;;;;;;;;;;4974518;28;20244;-68
2022/12/04 03:07:16;;;;;;;74.57;34.77;;;;;;;;;;4974049;28;20217;-67
2022/12/04 03:09:49;;;;;;;70.60;32.83;;;;;;;;;;4974329;28;20218;-68
2022/12/04 03:12:15;;;;;;;70.50;32.40;;;;;;;;;;4975040;28;20218;-68
2022/12/04 03:14:42;;;;;;;74.67;33.37;;;;;;;;;;4975370;28;20221;-68
2022/12/04 03:17:09;;;;;;;71.43;32.43;;;;;;;;;;4991749;28;20301;-67
2022/12/04 03:19:37;;;;;;;68.03;31.97;;;;;;;;;;4994743;28;20685;-68
2022/12/04 03:22:03;;;;;;;70.10;32.27;;;;;;;;;;4994288;28;20304;-67
2022/12/04 03:24:32;;;;;;;70.57;32.67;;;;;;;;;;4992492;28;20669;-68
2022/12/04 03:27:09;;;;;;;71.97;33.47;;;;;;;;;;4993357;28;20276;-68
2022/12/04 03:29:38;;;;;;;66.97;31.73;;;;;;;;;;4993477;28;20220;-68
2022/12/04 03:32:05;;;;;;;71.10;33.33;;;;;;;;;;4992809;28;20268;-67
2022/12/04 03:34:32;;;;;;;75.13;32.63;;;;;;;;;;4994547;28;20291;-68
2022/12/04 03:36:58;;;;;;;69.93;32.77;;;;;;;;;;4992238;28;20225;-68
2022/12/04 03:39:25;;;;;;;68.87;33.83;;;;;;;;;;4993669;28;20567;-68
2022/12/04 03:41:58;;;;;;;67.83;32.00;;;;;;;;;;4992842;28;20299;-68
2022/12/04 03:44:23;;;;;;;66.70;31.90;;;;;;;;;;4991730;28;20217;-68
2022/12/04 03:46:50;;;;;;;72.37;33.63;;;;;;;;;;4993176;28;20677;-69
2022/12/04 03:49:22;;;;;;;71.00;31.90;;;;;;;;;;4993617;28;20328;-68
2022/12/04 03:51:48;;;;;;;72.17;32.57;;;;;;;;;;4995465;28;20241;-68
2022/12/04 03:54:15;;;;;;;71.73;32.77;;;;;;;;;;4995666;28;20220;-67
2022/12/04 03:56:42;;;;;;;70.73;31.47;;;;;;;;;;4989293;28;20209;-68
2022/12/04 03:59:08;;;;;;;70.47;32.40;;;;;;;;;;4980326;28;20217;-68
2022/12/04 04:01:35;;;;;;;71.00;32.60;;;;;;;;;;4987964;28;20284;-68
2022/12/04 04:04:00;;;;;;;67.87;32.93;;;;;;;;;;4972912;28;20209;-65
2022/12/04 04:06:27;;;;;;;69.17;32.03;;;;;;;;;;4973605;28;20220;-68
2022/12/04 04:08:54;;;;;;;71.13;33.53;;;;;;;;;;4974449;28;20284;-68
2022/12/04 04:11:21;;;;;;;73.03;33.70;;;;;;;;;;4972137;28;20317;-68
2022/12/04 04:24:49;;;;;;;66.97;32.20;;;;;;;;;;4992554;28;20328;-69
2022/12/04 04:27:14;;;;;;;67.80;32.57;;;;;;;;;;4990627;28;20611;-67
2022/12/04 04:29:40;;;;;;;67.40;33.10;;;;;;;;;;4993595;28;20213;-68
2022/12/04 04:32:13;;;;;;;70.33;32.73;;;;;;;;;;4991643;28;20235;-67
2022/12/04 04:34:41;;;;;;;71.17;32.87;;;;;;;;;;4991489;28;20676;-68
2022/12/04 04:37:09;;;;;;;68.73;32.37;;;;;;;;;;4992744;28;20581;-68
2022/12/04 04:39:37;;;;;;;72.00;31.77;;;;;;;;;;4992674;28;20213;-68
2022/12/04 04:42:05;;;;;;;73.77;33.93;;;;;;;;;;4991240;28;20315;-68
2022/12/04 04:44:34;;;;;;;69.50;33.07;;;;;;;;;;4993368;28;20559;-68
2022/12/04 04:47:00;;;;;;;68.47;32.50;;;;;;;;;;4991008;28;20213;-68
2022/12/04 04:49:25;;;;;;;72.63;32.27;;;;;;;;;;5001092;28;20216;-68
2022/12/04 04:51:51;;;;;;;71.47;32.63;;;;;;;;;;4992001;28;20221;-68
2022/12/04 04:54:16;;;;;;;71.70;32.77;;;;;;;;;;4990813;28;20576;-67
2022/12/04 04:56:42;;;;;;;67.17;31.90;;;;;;;;;;4984942;28;20245;-68
2022/12/04 04:59:07;;;;;;;68.13;32.27;;;;;;;;;;4977187;28;20213;-67
2022/12/04 05:01:33;;;;;;;69.67;31.53;;;;;;;;;;4999681;28;20271;-68
2022/12/04 05:03:58;;;;;;;68.83;31.83;;;;;;;;;;4993106;28;20241;-68
2022/12/04 05:06:23;;;;;;;71.93;32.10;;;;;;;;;;4992525;28;20205;-67
2022/12/04 05:08:49;;;;;;;66.30;31.97;;;;;;;;;;4992131;28;20231;-68
2022/12/04 05:11:14;;;;;;;65.37;30.80;;;;;;;;;;4992338;28;20714;-67
2022/12/04 05:13:39;;;;;;;70.80;33.77;;;;;;;;;;4992745;28;20671;-68
2022/12/04 05:16:05;;;;;;;67.70;31.13;;;;;;;;;;4991954;28;20248;-68
2022/12/04 05:18:31;;;;;;;72.97;34.63;;;;;;;;;;4992895;28;20245;-68
2022/12/04 05:20:56;;;;;;;66.03;31.13;;;;;;;;;;4992870;28;20247;-68
2022/12/04 05:23:21;;;;;;;63.90;30.47;;;;;;;;;;5006641;28;20329;-68
2022/12/04 05:25:46;;;;;;;68.73;32.23;;;;;;;;;;4992836;28;20213;-68
2022/12/04 05:28:12;;;;;;;64.83;29.50;;;;;;;;;;4984192;28;20224;-68
2022/12/04 05:30:37;;;;;;;67.43;31.40;;;;;;;;;;4982903;28;20233;-68
2022/12/04 05:33:02;;;;;;;63.13;30.17;;;;;;;;;;5000134;28;20216;-67
2022/12/04 05:35:28;;;;;;;63.13;30.70;;;;;;;;;;4994755;28;20240;-68
2022/12/04 05:37:53;;;;;;;65.30;30.70;;;;;;;;;;4970615;28;20217;-68
2022/12/04 05:40:18;;;;;;;65.30;30.73;;;;;;;;;;4975010;28;20367;-68
2022/12/04 05:42:43;;;;;;;60.13;30.47;;;;;;;;;;4980512;28;20213;-68
2022/12/04 05:45:09;;;;;;;62.27;29.77;;;;;;;;;;4982115;28;20221;-67
2022/12/04 05:47:40;;;;;;;63.50;29.73;;;;;;;;;;4983174;28;20694;-68
2022/12/04 05:50:06;;;;;;;62.53;30.67;;;;;;;;;;5000675;28;20248;-67
2022/12/04 05:52:31;;;;;;;67.37;30.37;;;;;;;;;;4982960;28;20780;-68
2022/12/04 05:54:56;;;;;;;66.93;31.07;;;;;;;;;;4983581;28;21164;-68
2022/12/04 05:57:21;;;;;;;68.33;31.43;;;;;;;;;;4978523;28;20221;-68
2022/12/04 05:59:47;;;;;;;60.37;28.73;;;;;;;;;;4975507;28;20240;-68
2022/12/04 06:02:12;;;;;;;62.83;30.20;;;;;;;;;;4974470;28;20288;-68
2022/12/04 06:04:37;;;;;;;62.80;30.13;;;;;;;;;;4977712;28;20221;-68
2022/12/04 06:07:02;;;;;;;64.77;30.50;;;;;;;;;;4982583;28;20780;-67
2022/12/04 06:09:28;;;;;;;61.83;28.67;;;;;;;;;;4983350;28;20221;-68
2022/12/04 06:11:55;;;;;;;60.10;30.03;;;;;;;;;;4985566;28;20700;-68
2022/12/04 06:14:20;;;;;;;61.60;28.67;;;;;;;;;;5004909;28;20249;-68
2022/12/04 06:16:46;;;;;;;62.30;29.10;;;;;;;;;;4990024;28;20573;-68
2022/12/04 06:19:13;;;;;;;64.00;29.80;;;;;;;;;;4984372;28;20221;-68
2022/12/04 06:21:38;;;;;;;66.63;31.37;;;;;;;;;;4997985;28;20799;-69
2022/12/04 06:24:04;;;;;;;59.70;29.30;;;;;;;;;;4997286;28;20266;-66
2022/12/04 06:26:29;;;;;;;63.67;29.60;;;;;;;;;;4998182;28;20220;-66
2022/12/04 06:28:55;;;;;;;63.77;29.27;;;;;;;;;;5005132;28;20746;-66
2022/12/04 06:31:21;;;;;;;62.40;29.20;;;;;;;;;;5004891;28;20451;-66
2022/12/04 06:33:46;;;;;;;62.80;29.37;;;;;;;;;;5004801;28;20306;-66
2022/12/04 06:36:12;;;;;;;62.53;29.63;;;;;;;;;;4994158;28;20225;-66
2022/12/04 06:38:37;;;;;;;56.97;28.30;;;;;;;;;;4985885;28;20568;-66
2022/12/04 06:41:03;;;;;;;61.50;29.13;;;;;;;;;;4984717;28;20221;-66
2022/12/04 06:43:29;;;;;;;66.17;29.30;;;;;;;;;;4980501;28;20295;-66
2022/12/04 06:45:59;;;;;;;59.70;29.60;;;;;;;;;;4977780;28;20278;-66
2022/12/04 06:48:24;;;;;;;63.03;28.60;;;;;;;;;;5005171;28;20255;-66
2022/12/04 06:50:56;;;;;;;64.20;29.57;;;;;;;;;;4997817;28;20229;-64
2022/12/04 06:53:21;;;;;;;62.13;28.07;;;;;;;;;;4993973;28;20268;-64
2022/12/04 06:55:47;;;;;;;62.43;28.47;;;;;;;;;;4995206;28;20217;-63
2022/12/04 06:58:12;;;;;;;66.68;36.35;;;;;;;;;;4993461;28;20825;-64
2022/12/04 07:00:38;;;;;;;59.40;30.17;;;;;;;;;;5006708;28;20217;-65
2022/12/04 07:03:03;;;;;;;64.00;30.93;;;;;;;;;;5007860;28;20447;-61
2022/12/04 07:05:30;;;;;;;61.33;29.53;;;;;;;;;;4999272;28;20256;-64
2022/12/04 07:07:55;;;;;;;60.00;29.53;;;;;;;;;;4992959;28;20252;-64
2022/12/04 07:10:20;;;;;;;65.97;30.67;;;;;;;;;;4993567;28;20233;-64
2022/12/04 07:12:45;;;;;;;61.40;29.80;;;;;;;;;;4994615;28;20213;-64
2022/12/04 07:15:11;;;;;;;65.47;30.10;;;;;;;;;;4992479;28;20228;-64
2022/12/04 07:17:36;;;;;;;58.80;28.63;;;;;;;;;;4994353;28;20683;-64
2022/12/04 07:20:01;;;;;;;65.20;28.80;;;;;;;;;;4994071;28;20233;-63
2022/12/04 07:22:27;;;;;;;58.00;28.53;;;;;;;;;;4993317;28;20267;-64
2022/12/04 07:24:52;;;;;;;61.73;29.13;;;;;;;;;;5001145;28;20216;-64
2022/12/04 07:27:17;;;;;;;58.40;27.70;;;;;;;;;;5003453;28;20758;-63
2022/12/04 07:29:42;;;;;;;62.23;29.27;;;;;;;;;;5002986;28;20216;-65
2022/12/04 07:32:08;;;;;;;61.43;28.53;;;;;;;;;;4995629;28;20251;-63
2022/12/04 07:34:34;;;;;;;58.63;28.37;;;;;;;;;;5000053;28;20231;-64
2022/12/04 07:36:59;;;;;;;58.63;27.47;;;;;;;;;;4997511;28;20208;-65
2022/12/04 07:39:25;;;;;;;55.20;27.77;;;;;;;;;;5000507;28;20220;-65
2022/12/04 07:41:50;;;;;;;59.70;28.70;;;;;;;;;;5004377;28;20206;-65
2022/12/04 07:44:15;;;;;;;57.97;26.67;;;;;;;;;;5001395;28;20691;-65
2022/12/04 07:46:40;;;;;;;55.33;27.67;;;;;;;;;;4998609;28;20260;-67
2022/12/04 07:49:06;;;;;;;60.03;28.43;;;;;;;;;;4998045;28;20208;-65
2022/12/04 07:51:31;;;;;;;63.57;29.00;;;;;;;;;;4973962;28;20229;-66
2022/12/04 07:53:57;;;;;;;62.57;29.27;;;;;;;;;;4993064;28;20221;-65
2022/12/04 07:56:22;;;;;;;60.33;28.47;;;;;;;;;;4983988;28;20210;-65
2022/12/04 07:58:47;;;;;;;61.00;28.70;;;;;;;;;;4975612;28;20265;-65
2022/12/04 08:01:14;;;;;;;59.87;28.67;;;;;;;;;;4996886;28;20688;-64
2022/12/04 08:03:39;;;;;;;61.27;30.73;;;;;;;;;;4993032;28;20287;-65
2022/12/04 08:06:05;;;;;;;62.43;29.23;;;;;;;;;;4993393;28;20264;-65
2022/12/04 08:08:30;;;;;;;59.23;27.33;;;;;;;;;;4993965;28;20217;-65
2022/12/04 08:10:56;;;;;;;60.13;28.00;;;;;;;;;;4993028;28;20329;-66
2022/12/04 08:13:21;;;;;;;64.40;29.10;;;;;;;;;;4992081;28;20612;-65
2022/12/04 08:15:46;;;;;;;61.50;28.00;;;;;;;;;;4993202;28;20243;-66
2022/12/04 08:18:12;;;;;;;57.27;27.57;;;;;;;;;;4992611;28;20217;-66
2022/12/04 08:20:37;;;;;;;65.83;29.27;;;;;;;;;;4993584;28;20249;-66
2022/12/04 08:23:02;;;;;;;61.83;28.43;;;;;;;;;;4993187;28;20213;-65
2022/12/04 08:25:28;;;;;;;61.30;27.43;;;;;;;;;;4992919;28;20294;-66
2022/12/04 08:27:53;;;;;;;63.50;28.83;;;;;;;;;;4999226;28;20266;-68
2022/12/04 08:30:18;;;;;;;62.93;28.67;;;;;;;;;;5003001;28;20216;-69
2022/12/04 08:32:43;;;;;;;63.70;28.63;;;;;;;;;;5001572;28;20217;-69
2022/12/04 08:35:09;;;;;;;58.67;27.10;;;;;;;;;;5001384;28;20339;-69
2022/12/04 08:37:34;;;;;;;63.93;29.07;;;;;;;;;;5003634;28;20568;-69
2022/12/04 08:39:59;;;;;;;63.33;29.07;;;;;;;;;;5001666;28;20231;-67
2022/12/04 08:42:24;;;;;;;60.83;27.57;;;;;;;;;;5012660;28;20219;-67
2022/12/04 08:44:50;;;;;;;68.13;32.50;;;;;;;;;;5012734;28;20422;-67
2022/12/04 08:47:15;;;;;;;61.93;28.40;;;;;;;;;;5011191;28;20223;-64
2022/12/04 08:49:40;;;;;;;57.07;26.37;;;;;;;;;;5012943;28;20217;-66
2022/12/04 08:52:06;;;;;;;61.37;27.47;;;;;;;;;;5012069;28;20224;-66
2022/12/04 08:54:31;;;;;;;56.43;27.33;;;;;;;;;;5005931;28;20244;-66
2022/12/04 08:56:56;;;;;;;59.53;26.97;;;;;;;;;;5002206;28;20204;-65
2022/12/04 08:59:21;;;;;;;68.50;27.53;;;;;;;;;;4995449;28;20221;-66
2022/12/04 09:01:48;;;;;;;55.70;25.77;;;;;;;;;;5010263;28;20264;-68
2022/12/04 09:04:13;;;;;;;54.20;25.40;;;;;;;;;;5012471;28;20299;-66
2022/12/04 09:06:39;;;;;;;52.27;23.80;;;;;;;;;;5005574;28;20311;-66
2022/12/04 09:09:04;;;;;;;53.83;25.47;;;;;;;;;;4999662;28;20693;-68
2022/12/04 09:11:31;;;;;;;49.63;24.17;;;;;;;;;;4992970;28;20287;-68
2022/12/04 09:13:56;;;;;;;50.47;24.30;;;;;;;;;;4992417;28;20267;-68
2022/12/04 09:16:22;;;;;;;53.27;25.17;;;;;;;;;;4999948;28;20217;-68
2022/12/04 09:18:47;;;;;;;47.40;23.27;;;;;;;;;;5007329;28;20208;-67
2022/12/04 09:21:13;;;;;;;49.40;23.23;;;;;;;;;;5007610;28;20260;-68
2022/12/04 09:23:39;;;;;;;47.37;22.67;;;;;;;;;;4992732;28;20233;-68
2022/12/04 09:26:04;;;;;;;44.57;21.30;;;;;;;;;;4992213;28;20248;-68
2022/12/04 09:28:30;;;;;;;44.17;21.70;;;;;;;;;;4991894;28;20213;-68
2022/12/04 09:30:56;;;;;;;42.63;20.93;;;;;;;;;;4992632;28;20275;-68
2022/12/04 09:33:21;;;;;;;41.57;19.47;;;;;;;;;;4991982;28;20680;-68
2022/12/04 09:35:47;;;;;;;40.03;18.50;;;;;;;;;;4992004;28;20253;-68
2022/12/04 09:38:12;;;;;;;34.63;17.47;;;;;;;;;;4992021;28;20216;-67
2022/12/04 09:40:41;;;;;;;36.00;18.70;;;;;;;;;;4992382;28;20209;-66
2022/12/04 09:43:06;;;;;;;37.27;18.00;;;;;;;;;;4990171;28;20214;-65
2022/12/04 09:45:33;;;;;;;37.30;17.40;;;;;;;;;;4994381;28;20216;-65
2022/12/04 09:47:58;;;;;;;33.03;16.57;;;;;;;;;;4994823;28;20300;-65
2022/12/04 09:50:30;;;;;;;33.60;18.13;;;;;;;;;;4993800;28;20308;-65
2022/12/04 09:52:57;;;;;;;37.10;18.30;;;;;;;;;;4996348;28;20217;-65
2022/12/04 09:55:27;;;;;;;35.37;17.37;;;;;;;;;;4994365;28;20205;-65
2022/12/04 09:57:53;;;;;;;37.03;19.40;;;;;;;;;;5011650;28;20216;-65
2022/12/04 10:00:19;;;;;;;35.60;17.10;;;;;;;;;;4998253;28;20206;-65
2022/12/04 10:02:47;;;;;;;33.13;16.93;;;;;;;;;;4995601;28;20579;-65
2022/12/04 10:05:16;;;;;;;33.03;16.30;;;;;;;;;;4993408;28;20217;-65
2022/12/04 10:07:45;;;;;;;27.07;14.50;;;;;;;;;;4994586;28;20221;-67
2022/12/04 10:10:10;;;;;;;30.00;15.17;;;;;;;;;;4993025;28;20268;-67
2022/12/04 10:12:38;;;;;;;34.67;15.67;;;;;;;;;;4995796;28;20209;-67
2022/12/04 10:15:09;;;;;;;30.43;15.17;;;;;;;;;;4995219;28;20419;-67
2022/12/04 10:17:51;;;;;;;33.07;16.10;;;;;;;;;;4995843;28;20239;-67
2022/12/04 10:20:24;;;;;;;27.77;14.50;;;;;;;;;;4981572;28;20835;-67
2022/12/04 10:23:06;;;;;;;28.47;14.17;;;;;;;;;;4998770;28;20231;-67
2022/12/04 10:25:32;;;;;;;32.87;16.90;;;;;;;;;;4981385;28;20210;-67
2022/12/04 10:28:02;;;;;;;30.63;15.10;;;;;;;;;;5003322;28;20213;-68
2022/12/04 10:30:28;;;;;;;29.90;15.27;;;;;;;;;;5011704;28;20304;-67
2022/12/04 10:33:02;;;;;;;29.10;14.57;;;;;;;;;;4996714;28;20227;-67
2022/12/04 10:35:28;;;;;;;28.53;14.50;;;;;;;;;;4992223;28;20217;-69
2022/12/04 10:37:56;;;;;;;27.27;14.20;;;;;;;;;;5006822;28;20225;-67
2022/12/04 10:40:23;;;;;;;29.83;17.98;;;;;;;;;;5000069;28;20411;-67
2022/12/04 10:42:54;;;;;;;26.40;14.40;;;;;;;;;;5000591;28;20208;-67
2022/12/04 10:45:20;;;;;;;25.67;14.13;;;;;;;;;;4982025;28;20217;-67
2022/12/04 10:47:46;;;;;;;25.30;13.87;;;;;;;;;;4987316;28;20580;-67
2022/12/04 10:50:13;;;;;;;23.07;12.93;;;;;;;;;;5005971;28;20310;-67
2022/12/04 10:52:38;;;;;;;26.00;14.27;;;;;;;;;;5006542;28;20703;-66
2022/12/04 10:55:03;;;;;;;25.93;14.60;;;;;;;;;;5007906;28;20224;-67
2022/12/04 10:57:34;;;;;;;25.40;13.00;;;;;;;;;;4995560;28;20217;-67
2022/12/04 10:59:59;;;;;;;27.40;15.27;;;;;;;;;;4989235;28;20684;-67
2022/12/04 11:02:26;;;;;;;25.30;13.43;;;;;;;;;;4985481;28;20228;-67
2022/12/04 11:04:58;;;;;;;26.27;14.37;;;;;;;;;;4998199;28;20215;-67
2022/12/04 11:07:25;;;;;;;27.83;13.93;;;;;;;;;;4998112;28;20610;-67
2022/12/04 11:09:55;;;;;;;26.00;13.70;;;;;;;;;;5004001;28;20216;-66
2022/12/04 11:12:21;;;;;;;29.73;13.97;;;;;;;;;;4988330;28;20231;-65
2022/12/04 11:14:46;;;;;;;24.73;13.23;;;;;;;;;;5005755;28;20213;-68
2022/12/04 11:17:12;;;;;;;23.27;12.90;;;;;;;;;;4988485;28;20684;-69
2022/12/04 11:19:37;;;;;;;24.47;13.13;;;;;;;;;;4996921;28;20212;-69
2022/12/04 11:22:04;;;;;;;25.90;13.80;;;;;;;;;;4987929;28;20220;-69
2022/12/04 11:24:32;;;;;;;27.50;13.63;;;;;;;;;;4987533;28;20301;-66
2022/12/04 11:26:57;;;;;;;26.17;13.73;;;;;;;;;;4980571;28;20273;-67
2022/12/04 11:29:25;;;;;;;27.17;14.87;;;;;;;;;;4979949;28;20918;-66
2022/12/04 11:31:51;;;;;;;26.97;15.27;;;;;;;;;;4999549;28;20256;-66
2022/12/04 11:34:18;;;;;;;25.33;14.13;;;;;;;;;;5006359;28;20240;-66
2022/12/04 11:36:46;;;;;;;26.73;15.07;;;;;;;;;;5006412;28;20307;-67
2022/12/04 11:39:11;;;;;;;24.77;13.53;;;;;;;;;;5005823;28;20299;-66
2022/12/04 11:41:36;;;;;;;28.10;15.00;;;;;;;;;;5007010;28;20740;-66
2022/12/04 11:44:04;;;;;;;27.57;13.67;;;;;;;;;;5007181;28;20217;-66
2022/12/04 11:46:30;;;;;;;27.47;15.20;;;;;;;;;;5007278;28;20267;-66
2022/12/04 11:48:55;;;;;;;26.23;13.70;;;;;;;;;;4999431;28;20212;-67
2022/12/04 11:51:26;;;;;;;26.70;14.40;;;;;;;;;;4998676;28;20536;-66
2022/12/04 11:53:54;;;;;;;25.33;13.70;;;;;;;;;;5000563;28;20227;-66
2022/12/04 11:56:25;;;;;;;25.27;14.13;;;;;;;;;;5000726;28;20233;-66
2022/12/04 11:58:53;;;;;;;25.70;14.53;;;;;;;;;;5003189;28;20664;-67
2022/12/04 12:01:22;;;;;;;27.33;14.97;;;;;;;;;;4987878;28;20221;-66
2022/12/04 12:03:59;;;;;;;28.57;16.37;;;;;;;;;;5004977;28;20225;-66
2022/12/04 12:06:28;;;;;;;24.13;14.47;;;;;;;;;;5005335;28;20209;-66
2022/12/04 12:08:57;;;;;;;26.43;13.90;;;;;;;;;;5004595;28;20220;-66
2022/12/04 12:11:29;;;;;;;24.67;14.13;;;;;;;;;;4998018;28;20227;-67
2022/12/04 12:13:55;;;;;;;26.40;14.53;;;;;;;;;;4999054;28;20220;-67
2022/12/04 12:16:20;;;;;;;28.07;14.57;;;;;;;;;;4986873;28;20233;-66
2022/12/04 12:18:55;;;;;;;24.67;14.03;;;;;;;;;;4985821;28;20779;-67
2022/12/04 12:21:33;;;;;;;23.27;13.17;;;;;;;;;;4987128;28;20248;-66
2022/12/04 12:24:02;;;;;;;25.10;14.10;;;;;;;;;;5004410;28;20609;-67
2022/12/04 12:26:32;;;;;;;22.33;13.33;;;;;;;;;;4993453;28;20217;-67
2022/12/04 12:29:04;;;;;;;24.17;13.07;;;;;;;;;;4987236;28;20223;-67
2022/12/04 12:31:30;;;;;;;25.43;14.30;;;;;;;;;;4993195;28;20236;-67
2022/12/04 12:33:57;;;;;;;24.23;13.23;;;;;;;;;;4980836;28;20212;-67
2022/12/04 12:36:23;;;;;;;23.00;12.73;;;;;;;;;;4978667;28;20213;-66
2022/12/04 12:38:50;;;;;;;24.37;13.60;;;;;;;;;;4978000;28;20874;-67
2022/12/04 12:41:21;;;;;;;25.13;13.93;;;;;;;;;;4984135;28;20575;-66
2022/12/04 12:43:48;;;;;;;24.10;12.93;;;;;;;;;;4987087;28;20217;-67
2022/12/04 12:46:14;;;;;;;23.80;12.90;;;;;;;;;;4985724;28;20304;-66
2022/12/04 12:48:52;;;;;;;22.77;12.23;;;;;;;;;;4985774;28;20272;-66
2022/12/04 12:51:26;;;;;;;22.77;12.27;;;;;;;;;;4986209;28;20303;-65
2022/12/04 12:53:52;;;;;;;22.23;12.00;;;;;;;;;;4984934;28;20517;-66
2022/12/04 12:56:18;;;;;;;24.07;12.93;;;;;;;;;;4977079;28;20216;-66
2022/12/04 12:58:45;;;;;;;23.93;12.50;;;;;;;;;;4960818;28;20236;-70
2022/12/04 13:01:18;;;;;;;24.63;13.23;;;;;;;;;;4964161;28;20245;-68
2022/12/04 13:03:51;;;;;;;24.83;13.17;;;;;;;;;;4982109;28;20687;-68
2022/12/04 13:06:18;;;;;;;22.10;12.97;;;;;;;;;;4985600;28;20248;-67
2022/12/04 13:08:44;;;;;;;24.70;13.13;;;;;;;;;;4984560;28;20275;-67
2022/12/04 13:11:12;;;;;;;24.83;13.63;;;;;;;;;;4986224;28;20237;-67
2022/12/04 13:13:40;;;;;;;21.53;13.33;;;;;;;;;;4985711;28;20652;-67
2022/12/04 13:16:08;;;;;;;24.63;13.97;;;;;;;;;;4981242;28;20300;-67
2022/12/04 13:18:37;;;;;;;24.73;13.87;;;;;;;;;;4982281;28;20297;-66
2022/12/04 13:21:05;;;;;;;24.37;13.70;;;;;;;;;;4975012;28;20569;-67
2022/12/04 13:23:31;;;;;;;29.93;14.83;;;;;;;;;;4963723;28;20233;-67
2022/12/04 13:26:16;;;;;;;29.93;14.97;;;;;;;;;;4968461;28;20216;-68
2022/12/04 13:28:43;;;;;;;27.77;14.10;;;;;;;;;;4976549;28;20668;-67
2022/12/04 13:31:08;;;;;;;28.10;14.83;;;;;;;;;;4970763;28;20233;-67
2022/12/04 13:33:33;;;;;;;27.17;14.10;;;;;;;;;;4971950;28;20252;-67
2022/12/04 13:36:17;;;;;;;37.63;18.90;;;;;;;;;;4970963;28;20563;-66
2022/12/04 13:38:43;;;;;;;30.83;16.37;;;;;;;;;;4976319;28;20218;-67
2022/12/04 13:41:11;;;;;;;27.97;15.03;;;;;;;;;;4966235;28;20241;-66
2022/12/04 13:43:39;;;;;;;28.77;15.47;;;;;;;;;;4979402;28;20210;-66
2022/12/04 13:46:06;;;;;;;31.43;15.40;;;;;;;;;;4963452;28;20337;-66
2022/12/04 13:48:32;;;;;;;31.40;16.90;;;;;;;;;;4984409;28;20213;-67
2022/12/04 13:51:01;;;;;;;37.43;21.27;;;;;;;;;;4990086;28;20233;-66
2022/12/04 13:53:29;;;;;;;33.70;19.17;;;;;;;;;;4991251;28;20218;-66
2022/12/04 13:55:54;;;;;;;35.03;19.90;;;;;;;;;;4988729;28;20209;-66
2022/12/04 13:58:19;;;;;;;33.03;17.27;;;;;;;;;;4985234;28;21259;-66
2022/12/04 14:00:45;;;;;;;35.70;18.03;;;;;;;;;;4971340;28;20214;-66
2022/12/04 14:03:20;;;;;;;33.27;18.53;;;;;;;;;;4985494;28;20233;-66
2022/12/04 14:05:45;;;;;;;32.87;17.80;;;;;;;;;;4982149;28;20693;-66
2022/12/04 14:08:18;;;;;;;36.00;18.83;;;;;;;;;;4981000;28;20502;-66
2022/12/04 14:10:43;;;;;;;39.47;20.63;;;;;;;;;;4984488;28;20225;-66
2022/12/04 14:13:12;;;;;;;41.43;21.63;;;;;;;;;;4989166;28;20229;-66
2022/12/04 14:15:37;;;;;;;39.27;18.37;;;;;;;;;;4988793;28;20601;-67
2022/12/04 14:18:02;;;;;;;34.40;18.07;;;;;;;;;;5005120;28;20247;-67
2022/12/04 14:20:28;;;;;;;37.67;19.50;;;;;;;;;;5015576;28;20236;-67
2022/12/04 14:22:54;;;;;;;37.33;19.33;;;;;;;;;;5015144;28;20212;-67
2022/12/04 14:25:21;;;;;;;36.03;17.63;;;;;;;;;;5011388;28;20695;-67